Time;durP1;ratioP1;P1;durP2;ratioP2;P2;SDS_P1;SDS_P2;PMS_P1;PMS_P2;Temp;Humidity;BMP_temperature;BMP_pressure;BME280_temperature;BME280_humidity;BME280_pressure;Samples;Min_cycle;Max_cycle;Signal;HPM_P1;HPM_P2
2022/12/24 00:00:28;;;;;;;172.82;73.38;;;;;;;2.83;73.85;99608.06;3151953;28;20055;-67
2022/12/24 00:02:00;;;;;;;177.68;76.43;;;;;;;2.83;73.80;99607.25;3148781;28;20078;-66
2022/12/24 00:03:32;;;;;;;186.13;77.20;;;;;;;2.83;73.87;99622.66;3152542;28;20048;-66
2022/12/24 00:05:05;;;;;;;190.57;76.57;;;;;;;2.80;73.98;99612.44;3157081;28;20056;-66
2022/12/24 00:06:39;;;;;;;187.90;78.40;;;;;;;2.79;73.97;99616.72;3156628;28;20441;-67
2022/12/24 00:08:10;;;;;;;182.25;73.05;;;;;;;2.78;74.13;99619.31;3157157;28;20047;-67
2022/12/24 00:09:42;;;;;;;182.10;76.00;;;;;;;2.77;74.17;99612.47;3157249;28;20047;-66
2022/12/24 00:11:13;;;;;;;172.73;70.45;;;;;;;2.74;74.27;99624.50;3157172;28;20044;-66
2022/12/24 00:12:45;;;;;;;173.68;70.70;;;;;;;2.73;74.25;99627.13;3157445;28;20060;-67
2022/12/24 00:14:17;;;;;;;161.88;68.32;;;;;;;2.72;74.15;99630.53;3157509;28;20048;-67
2022/12/24 00:15:48;;;;;;;170.70;71.53;;;;;;;2.41;74.32;99579.63;3156621;28;20059;-66
2022/12/24 00:17:20;;;;;;;184.45;70.65;;;;;;;2.69;74.36;99621.19;3154680;28;20044;-67
2022/12/24 00:18:52;;;;;;;170.02;70.40;;;;;;;2.67;74.41;99622.06;3155062;28;20058;-69
2022/12/24 00:20:23;;;;;;;170.82;71.20;;;;;;;2.63;74.33;99618.72;3153162;28;20454;-68
2022/12/24 00:21:56;;;;;;;173.85;73.93;;;;;;;2.65;74.34;99622.09;3153767;28;20060;-67
2022/12/24 00:23:28;;;;;;;165.13;69.78;;;;;;;2.64;74.57;99622.13;3156776;28;20044;-67
2022/12/24 00:25:00;;;;;;;165.75;69.82;;;;;;;2.64;74.49;99625.53;3157062;28;20505;-67
2022/12/24 00:26:32;;;;;;;163.48;69.80;;;;;;;2.64;74.36;99624.69;3157078;28;20044;-67
2022/12/24 00:28:04;;;;;;;177.38;70.60;;;;;;;2.31;74.21;99565.22;3157069;28;20046;-67
2022/12/24 00:29:36;;;;;;;153.32;65.68;;;;;;;2.61;74.38;99628.16;3156943;28;20547;-66
2022/12/24 00:31:09;;;;;;;170.85;66.35;;;;;;;2.56;74.36;99621.38;3157212;28;20121;-67
2022/12/24 00:32:41;;;;;;;171.95;68.97;;;;;;;2.59;74.45;99622.19;3151920;28;20440;-67
2022/12/24 00:34:12;;;;;;;167.82;67.20;;;;;;;2.58;74.62;99622.22;3156945;28;20105;-67
2022/12/24 00:35:43;;;;;;;173.00;69.82;;;;;;;2.53;74.45;99629.16;3156328;28;20207;-67
2022/12/24 00:37:16;;;;;;;165.18;71.20;;;;;;;2.57;74.59;99633.34;3134834;28;20190;-66
2022/12/24 00:38:48;;;;;;;184.23;70.60;;;;;;;2.55;74.60;99624.84;3147487;28;20441;-67
2022/12/24 00:40:19;;;;;;;168.50;68.22;;;;;;;2.52;74.64;99632.59;3156575;28;20117;-65
2022/12/24 00:41:51;;;;;;;168.20;70.28;;;;;;;2.55;74.60;99632.56;3156946;28;20440;-66
2022/12/24 00:43:22;;;;;;;150.40;66.50;;;;;;;2.55;74.60;99632.56;3155795;28;20056;-66
2022/12/24 00:44:53;;;;;;;162.82;65.65;;;;;;;2.52;74.62;99630.88;3154457;28;20058;-67
2022/12/24 00:46:27;;;;;;;160.43;66.20;;;;;;;2.46;74.47;99618.97;3155373;28;20063;-66
2022/12/24 00:47:59;;;;;;;154.65;66.18;;;;;;;2.52;74.56;99622.31;3153521;28;20048;-65
2022/12/24 00:49:31;;;;;;;155.43;63.47;;;;;;;2.46;74.36;99613.81;3157169;28;20177;-66
2022/12/24 00:51:03;;;;;;;160.43;65.70;;;;;;;2.48;74.41;99630.06;3153903;28;20529;-66
2022/12/24 00:52:36;;;;;;;151.95;65.82;;;;;;;1.58;74.45;99488.38;3151017;28;20373;-67
2022/12/24 00:54:08;;;;;;;154.95;64.75;;;;;;;2.47;74.59;99625.78;3156520;28;20052;-66
2022/12/24 00:55:39;;;;;;;158.18;67.30;;;;;;;2.48;74.69;99626.63;3157071;28;20052;-67
2022/12/24 00:57:11;;;;;;;151.88;64.40;;;;;;;2.45;74.64;99619.81;3153895;28;20539;-67
2022/12/24 00:58:41;;;;;;;152.93;65.38;;;;;;;2.31;74.63;99595.19;3155940;28;20052;-67
2022/12/24 01:00:16;;;;;;;157.13;66.60;;;;;;;2.43;74.88;99616.44;3156857;28;20136;-66
2022/12/24 01:01:47;;;;;;;153.27;65.15;;;;;;;2.43;74.70;99613.88;3150931;28;20114;-67
2022/12/24 01:03:18;;;;;;;150.88;66.70;;;;;;;2.46;74.75;99618.97;3156642;28;20090;-66
2022/12/24 01:06:40;;;;;;;155.18;65.70;;;;;;;1.36;74.90;99445.91;3157054;28;20052;-67
2022/12/24 01:08:12;;;;;;;159.45;64.25;;;;;;;2.40;75.10;99624.19;3156560;28;20255;-67
2022/12/24 01:09:44;;;;;;;156.98;64.65;;;;;;;2.39;75.02;99616.50;3155513;28;20089;-67
2022/12/24 01:11:16;;;;;;;158.00;65.13;;;;;;;2.39;75.01;99619.06;3136462;28;20111;-66
2022/12/24 01:12:47;;;;;;;155.73;64.72;;;;;;;2.15;74.92;99574.88;3159417;28;20116;-68
2022/12/24 01:14:19;;;;;;;149.07;63.38;;;;;;;2.37;74.98;99613.97;3159387;28;20073;-68
2022/12/24 01:15:51;;;;;;;155.98;66.47;;;;;;;2.37;75.20;99620.84;3156791;28;20055;-67
2022/12/24 01:17:23;;;;;;;152.02;64.90;;;;;;;2.37;75.01;99606.25;3157997;28;20105;-67
2022/12/24 01:18:56;;;;;;;146.57;62.20;;;;;;;2.36;74.94;99607.09;3158974;28;20063;-67
2022/12/24 01:20:30;;;;;;;155.02;64.85;;;;;;;2.34;75.00;99601.16;3158774;28;20521;-67
2022/12/24 01:22:01;;;;;;;147.77;63.78;;;;;;;2.35;75.18;99602.00;3159116;28;20082;-67
2022/12/24 01:23:34;;;;;;;148.35;64.63;;;;;;;2.35;74.94;99592.56;3158757;28;20051;-68
2022/12/24 01:25:06;;;;;;;;;;;;;;;2.28;75.01;99590.97;3159663;28;20048;-68
2022/12/24 01:26:38;;;;;;;154.30;59.85;;;;;;;2.26;75.03;99588.41;3159258;28;19924;-67
2022/12/24 01:28:09;;;;;;;158.48;63.60;;;;;;;2.28;75.18;99593.53;3158708;28;20433;-67
2022/12/24 01:29:41;;;;;;;156.27;62.55;;;;;;;2.24;75.21;99582.44;3159163;28;20043;-66
2022/12/24 01:31:13;;;;;;;145.57;63.53;;;;;;;2.29;75.12;99595.22;3154304;28;20044;-67
2022/12/24 01:32:45;;;;;;;160.32;65.28;;;;;;;2.22;75.06;99581.63;3155586;28;20044;-67
2022/12/24 01:34:16;;;;;;;153.15;61.65;;;;;;;2.28;75.06;99593.53;3158912;28;20487;-67
2022/12/24 01:35:48;;;;;;;143.77;62.13;;;;;;;2.23;75.07;99590.19;3158824;28;20073;-67
2022/12/24 01:37:19;;;;;;;158.18;62.72;;;;;;;2.28;75.08;99598.69;3158787;28;20059;-67
2022/12/24 01:38:52;;;;;;;151.48;63.38;;;;;;;2.27;75.08;99595.25;3148504;28;20048;-67
2022/12/24 01:44:26;;;;;;;146.00;60.42;;;;;;;2.21;75.20;99597.06;3158872;28;20047;-67
2022/12/24 01:46:00;;;;;;;152.38;63.45;;;;;;;2.19;75.41;99593.66;3154202;28;20052;-68
2022/12/24 01:47:30;;;;;;;154.88;64.40;;;;;;;2.19;75.39;99586.81;3153738;28;20064;-67
2022/12/24 01:49:05;;;;;;;148.30;63.15;;;;;;;2.16;75.52;99589.44;3150479;28;20052;-67
2022/12/24 01:50:36;;;;;;;154.73;64.05;;;;;;;2.20;75.47;99596.22;3158318;28;20048;-67
2022/12/24 01:52:13;;;;;;;159.10;65.03;;;;;;;2.22;75.34;99597.06;3150338;28;20598;-67
2022/12/24 01:53:49;;;;;;;155.60;67.07;;;;;;;2.22;75.35;99596.22;3158661;28;20060;-67
2022/12/24 01:55:23;;;;;;;159.40;66.63;;;;;;;2.21;75.46;99597.91;3158657;28;20068;-67
2022/12/24 01:57:00;;;;;;;146.18;63.50;;;;;;;2.20;75.51;99590.22;3156011;28;20114;-66
2022/12/24 01:58:35;;;;;;;150.32;65.38;;;;;;;2.20;75.44;99595.38;3157950;28;20052;-67
2022/12/24 02:00:12;;;;;;;160.68;67.03;;;;;;;2.20;75.47;99596.22;3153945;28;20117;-66
2022/12/24 02:01:44;;;;;;;148.70;64.93;;;;;;;2.20;75.53;99590.22;3153065;28;20136;-66
2022/12/24 02:03:16;;;;;;;153.13;65.10;;;;;;;2.18;75.40;99584.25;3158050;28;20859;-65
2022/12/24 02:04:53;;;;;;;156.55;65.63;;;;;;;2.19;75.28;99593.66;3158787;28;20059;-66
2022/12/24 02:06:25;;;;;;;151.45;63.70;;;;;;;2.17;75.37;99590.28;3158630;28;20055;-66
2022/12/24 02:07:58;;;;;;;154.63;62.20;;;;;;;2.17;75.48;99591.13;3158568;28;20070;-66
2022/12/24 02:09:32;;;;;;;152.95;64.68;;;;;;;1.66;75.62;99510.53;3158652;28;20064;-66
2022/12/24 02:11:09;;;;;;;149.27;63.42;;;;;;;2.17;75.46;99593.69;3158590;28;20047;-66
2022/12/24 02:12:42;;;;;;;153.38;60.40;;;;;;;2.16;75.63;99593.69;3158361;28;20076;-66
2022/12/24 02:14:14;;;;;;;153.25;62.58;;;;;;;2.15;75.59;99582.56;3146327;28;20041;-66
2022/12/24 02:16:01;;;;;;;154.63;61.80;;;;;;;2.14;75.58;99587.75;3157057;28;20063;-66
2022/12/24 02:17:42;;;;;;;134.30;61.33;;;;;;;2.16;75.63;99589.44;3158257;28;20348;-66
2022/12/24 02:19:54;;;;;;;145.23;62.08;;;;;;;2.14;75.46;99585.19;3158537;28;20127;-66
2022/12/24 02:21:44;;;;;;;144.98;61.30;;;;;;;2.12;75.43;99580.06;3158301;28;20056;-66
2022/12/24 02:23:31;;;;;;;153.35;62.85;;;;;;;2.10;75.52;99580.94;3158109;28;20479;-66
2022/12/24 02:25:19;;;;;;;142.07;60.92;;;;;;;2.11;75.51;99582.66;3158167;28;20047;-66
2022/12/24 02:27:11;;;;;;;143.23;61.67;;;;;;;2.09;75.49;99581.81;3157914;28;20137;-66
2022/12/24 02:29:04;;;;;;;137.25;60.70;;;;;;;2.05;75.53;99581.03;3153501;28;20101;-67
2022/12/24 02:30:43;;;;;;;148.45;59.53;;;;;;;2.05;75.52;99587.00;3133253;28;20068;-66
2022/12/24 02:32:20;;;;;;;144.10;59.72;;;;;;;2.07;75.57;99593.84;3133322;28;20057;-67
2022/12/24 02:33:59;;;;;;;141.52;61.03;;;;;;;2.07;75.58;99596.41;3133278;28;20060;-67
2022/12/24 02:35:40;;;;;;;140.40;59.25;;;;;;;2.08;75.43;99596.38;3133276;28;20087;-66
2022/12/24 02:37:17;;;;;;;135.82;60.10;;;;;;;2.05;75.67;99594.72;3145066;28;20110;-66
2022/12/24 02:38:58;;;;;;;141.95;59.50;;;;;;;1.47;75.51;99499.66;3147883;28;20491;-67
2022/12/24 02:40:36;;;;;;;142.25;59.92;;;;;;;2.04;75.70;99595.59;3158164;28;20048;-67
2022/12/24 02:42:10;;;;;;;148.43;61.60;;;;;;;2.02;75.54;99592.19;3157974;28;20056;-67
2022/12/24 02:43:47;;;;;;;147.00;60.63;;;;;;;1.99;75.71;99592.22;3153216;28;20048;-66
2022/12/24 02:45:22;;;;;;;143.20;61.58;;;;;;;2.03;75.62;99595.59;3158066;28;20048;-66
2022/12/24 02:46:57;;;;;;;140.23;60.50;;;;;;;2.02;75.60;99599.88;3158333;28;20425;-66
2022/12/24 02:48:31;;;;;;;139.32;61.40;;;;;;;2.01;75.76;99598.22;3158129;28;20048;-67
2022/12/24 02:50:06;;;;;;;143.25;59.80;;;;;;;1.98;75.72;99603.38;3157991;28;20089;-66
2022/12/24 02:51:38;;;;;;;139.88;60.42;;;;;;;1.97;75.73;99603.38;3150902;28;20141;-66
2022/12/24 02:53:09;;;;;;;150.32;60.40;;;;;;;1.96;75.80;99609.41;3156724;28;20064;-67
2022/12/24 02:54:41;;;;;;;146.52;62.13;;;;;;;1.93;75.83;99602.59;3157906;28;20063;-67
2022/12/24 02:56:30;;;;;;;141.98;58.55;;;;;;;1.92;75.80;99608.56;3157782;28;20109;-68
2022/12/24 02:58:18;;;;;;;146.68;58.85;;;;;;;1.91;75.67;99611.19;3153559;28;20478;-67
2022/12/24 03:00:02;;;;;;;139.40;58.47;;;;;;;1.88;75.70;99608.66;3132940;28;20076;-65
2022/12/24 03:01:45;;;;;;;144.73;60.20;;;;;;;1.88;75.88;99608.66;3139404;28;20059;-66
2022/12/24 03:03:34;;;;;;;133.88;59.30;;;;;;;1.86;75.82;99608.66;3157703;28;20177;-67
2022/12/24 03:05:18;;;;;;;137.77;56.90;;;;;;;1.84;75.71;99607.00;3157449;28;20143;-67
2022/12/24 03:06:53;;;;;;;134.88;58.03;;;;;;;1.80;75.66;99607.03;3157583;28;20036;-68
2022/12/24 03:08:37;;;;;;;140.38;57.05;;;;;;;1.78;75.63;99603.63;3157484;28;20044;-68
2022/12/24 03:10:20;;;;;;;134.98;57.72;;;;;;;0.87;75.52;99460.19;3157753;28;20146;-68
2022/12/24 03:11:58;;;;;;;136.88;57.50;;;;;;;1.72;75.65;99601.16;3158080;28;20069;-68
2022/12/24 03:13:31;;;;;;;139.85;59.92;;;;;;;1.68;75.75;99602.03;3153363;28;20044;-68
2022/12/24 03:15:04;;;;;;;131.25;58.30;;;;;;;0.81;75.62;99451.72;3150424;28;20068;-68
2022/12/24 03:16:36;;;;;;;134.40;58.88;;;;;;;1.69;75.51;99597.78;3149115;28;20058;-66
2022/12/24 03:18:10;;;;;;;145.50;59.97;;;;;;;1.55;75.62;99578.25;3157755;28;20093;-68
2022/12/24 03:19:44;;;;;;;131.90;59.83;;;;;;;1.65;75.64;99588.41;3157923;28;20052;-68
2022/12/24 03:21:20;;;;;;;136.68;58.05;;;;;;;1.64;75.49;99589.28;3157541;28;20044;-68
2022/12/24 03:22:51;;;;;;;139.10;56.22;;;;;;;1.58;75.48;99591.03;3157722;28;20124;-67
2022/12/24 03:24:23;;;;;;;134.50;58.15;;;;;;;1.58;75.60;99587.63;3157674;28;20052;-68
2022/12/24 03:25:55;;;;;;;135.30;57.03;;;;;;;1.56;75.62;99587.63;3145796;28;20074;-67
2022/12/24 03:27:31;;;;;;;140.00;56.83;;;;;;;1.56;75.68;99586.78;3153386;28;20454;-67
2022/12/24 03:29:05;;;;;;;133.43;56.05;;;;;;;1.42;75.49;99561.31;3132624;28;20419;-67
2022/12/24 03:30:39;;;;;;;133.65;57.38;;;;;;;1.54;75.56;99575.72;3132984;28;20049;-66
2022/12/24 03:32:10;;;;;;;133.80;55.50;;;;;;;1.40;75.56;99549.38;3155897;28;20048;-67
2022/12/24 03:33:42;;;;;;;128.57;58.35;;;;;;;1.53;75.68;99572.28;3155892;28;20073;-66
2022/12/24 03:35:14;;;;;;;147.00;57.78;;;;;;;1.54;75.57;99581.69;3157478;28;20108;-67
2022/12/24 03:36:48;;;;;;;129.45;55.25;;;;;;;1.52;75.64;99572.31;3157424;28;20101;-67
2022/12/24 03:38:20;;;;;;;138.38;59.80;;;;;;;1.53;75.75;99574.84;3146625;28;20040;-67
2022/12/24 03:39:51;;;;;;;138.95;57.35;;;;;;;1.55;75.62;99577.41;3153485;28;20582;-67
2022/12/24 03:41:22;;;;;;;137.90;57.78;;;;;;;1.55;75.88;99583.38;3157639;28;20127;-67
2022/12/24 03:42:54;;;;;;;137.60;58.67;;;;;;;1.55;75.79;99580.81;3153421;28;20517;-68
2022/12/24 03:44:26;;;;;;;134.82;57.40;;;;;;;1.55;75.82;99580.81;3157248;28;20047;-66
2022/12/24 03:45:58;;;;;;;135.90;57.88;;;;;;;1.53;75.64;99579.13;3157548;28;20048;-66
2022/12/24 03:47:31;;;;;;;134.40;57.55;;;;;;;1.52;75.57;99582.56;3156977;28;20067;-67
2022/12/24 03:49:01;;;;;;;148.02;59.28;;;;;;;1.47;75.74;99586.91;3157051;28;20101;-68
2022/12/24 03:50:35;;;;;;;130.88;56.15;;;;;;;1.48;75.77;99586.91;3157247;28;20436;-67
2022/12/24 03:52:06;;;;;;;133.52;56.00;;;;;;;1.38;75.76;99572.47;3148803;28;20048;-67
2022/12/24 03:53:38;;;;;;;134.90;57.80;;;;;;;1.37;75.83;99563.06;3157081;28;20063;-67
2022/12/24 03:55:10;;;;;;;128.63;57.13;;;;;;;1.44;75.78;99574.94;3157301;28;20044;-66
2022/12/24 03:56:41;;;;;;;134.38;56.92;;;;;;;1.34;75.52;99556.25;3152768;28;20044;-67
2022/12/24 03:58:12;;;;;;;132.90;56.97;;;;;;;1.43;75.74;99572.41;3156739;28;20486;-66
2022/12/24 03:59:44;;;;;;;145.23;59.92;;;;;;;1.41;75.63;99569.84;3157157;28;20044;-66
2022/12/24 04:01:16;;;;;;;134.00;57.03;;;;;;;1.40;75.64;99570.72;3153206;28;20068;-67
2022/12/24 04:02:48;;;;;;;133.95;55.53;;;;;;;1.41;75.54;99571.56;3155371;28;20390;-67
2022/12/24 04:04:19;;;;;;;132.82;58.63;;;;;;;1.40;75.54;99575.03;3149981;28;20735;-67
2022/12/24 04:06:02;;;;;;;136.38;57.40;;;;;;;1.41;75.52;99582.69;3154265;28;20054;-66
2022/12/24 04:07:34;;;;;;;137.05;57.75;;;;;;;1.39;75.56;99573.31;3157455;28;20536;-66
2022/12/24 04:09:05;;;;;;;132.95;57.63;;;;;;;1.40;75.72;99582.72;3157005;28;20157;-67
2022/12/24 04:10:37;;;;;;;133.15;57.30;;;;;;;1.35;75.55;99575.06;3157020;28;20068;-67
2022/12/24 04:12:09;;;;;;;125.55;56.38;;;;;;;1.40;75.61;99582.72;3153214;28;20059;-67
2022/12/24 04:13:40;;;;;;;139.57;58.78;;;;;;;1.39;75.64;99581.88;3157131;28;20056;-66
2022/12/24 04:15:12;;;;;;;128.88;55.72;;;;;;;1.39;75.78;99575.88;3157200;28;20065;-67
2022/12/24 04:16:43;;;;;;;132.48;56.00;;;;;;;1.38;75.87;99575.03;3154518;28;20059;-66
2022/12/24 04:18:14;;;;;;;136.23;56.85;;;;;;;1.40;75.76;99577.59;3157045;28;20207;-67
2022/12/24 04:19:46;;;;;;;130.63;56.90;;;;;;;1.39;75.76;99576.75;3156910;28;20047;-67
2022/12/24 04:21:19;;;;;;;132.48;55.53;;;;;;;1.39;75.89;99574.19;3154657;28;20188;-67
2022/12/24 04:22:51;;;;;;;;;;;;;;;1.33;75.85;99575.09;3157455;28;20459;-66
2022/12/24 04:24:23;;;;;;;126.22;54.45;;;;;;;1.31;76.05;99576.81;3157097;28;20336;-67
2022/12/24 04:25:54;;;;;;;137.35;56.38;;;;;;;1.34;76.11;99581.06;3152862;28;20055;-67
2022/12/24 04:27:26;;;;;;;131.05;58.00;;;;;;;1.35;75.95;99582.75;3156627;28;20063;-66
2022/12/24 04:28:58;;;;;;;140.82;58.40;;;;;;;1.35;76.03;99575.91;3151019;28;20592;-66
2022/12/24 04:30:30;;;;;;;130.65;57.60;;;;;;;1.36;76.06;99585.31;3156910;28;20181;-65
2022/12/24 04:32:02;;;;;;;139.50;57.47;;;;;;;1.35;76.13;99586.16;3156663;28;20453;-66
2022/12/24 04:33:34;;;;;;;137.00;59.03;;;;;;;1.33;75.93;99589.59;3156620;28;20532;-66
2022/12/24 04:35:06;;;;;;;149.52;60.33;;;;;;;1.35;76.04;99587.88;3156382;28;20063;-67
2022/12/24 04:36:40;;;;;;;148.63;60.67;;;;;;;1.33;76.16;99594.75;3156547;28;20052;-65
2022/12/24 04:38:11;;;;;;;145.85;61.97;;;;;;;1.31;76.14;99588.78;3151285;28;20055;-65
2022/12/24 04:39:42;;;;;;;149.43;63.33;;;;;;;1.31;76.14;99586.22;3152328;28;20052;-66
2022/12/24 04:41:16;;;;;;;153.30;64.13;;;;;;;1.34;76.01;99591.31;3151968;28;20072;-66
2022/12/24 04:42:49;;;;;;;143.88;61.35;;;;;;;1.31;75.99;99581.09;3156573;28;20716;-67
2022/12/24 04:44:21;;;;;;;155.75;64.43;;;;;;;1.32;76.11;99591.31;3156663;28;20390;-67
2022/12/24 04:45:53;;;;;;;153.10;63.65;;;;;;;1.33;76.04;99597.31;3157933;28;20044;-66
2022/12/24 04:47:24;;;;;;;158.50;65.43;;;;;;;1.32;76.09;99603.31;3159698;28;20044;-66
2022/12/24 04:48:57;;;;;;;159.15;67.45;;;;;;;1.34;76.11;99609.28;3159877;28;20051;-70
2022/12/24 04:50:29;;;;;;;154.85;66.93;;;;;;;1.33;76.21;99598.19;3159538;28;20121;-67
2022/12/24 04:52:02;;;;;;;159.98;68.35;;;;;;;1.35;76.11;99591.28;3151264;28;20136;-67
2022/12/24 04:53:34;;;;;;;161.20;67.63;;;;;;;1.30;76.15;99584.50;3159420;28;20124;-67
2022/12/24 04:55:06;;;;;;;171.57;68.10;;;;;;;1.30;76.13;99590.53;3154408;28;20133;-67
2022/12/24 04:56:38;;;;;;;158.60;68.25;;;;;;;1.34;76.09;99596.47;3156683;28;20052;-67
2022/12/24 04:58:09;;;;;;;154.10;64.47;;;;;;;1.33;76.24;99584.47;3159332;28;20590;-66
2022/12/24 04:59:41;;;;;;;158.68;68.63;;;;;;;1.32;76.36;99599.03;3158889;28;20131;-66
2022/12/24 05:01:14;;;;;;;152.45;65.88;;;;;;;1.34;76.32;99596.47;3155822;28;20586;-66
2022/12/24 05:02:46;;;;;;;166.70;69.75;;;;;;;1.33;76.48;99597.31;3157876;28;20151;-66
2022/12/24 05:04:18;;;;;;;159.25;67.70;;;;;;;1.20;76.52;99577.78;3158968;28;20059;-64
2022/12/24 05:05:49;;;;;;;157.55;68.05;;;;;;;1.32;76.59;99596.47;3159190;28;20437;-65
2022/12/24 05:07:22;;;;;;;155.68;67.30;;;;;;;1.32;76.70;99604.16;3150327;28;20048;-67
2022/12/24 05:08:54;;;;;;;151.30;66.80;;;;;;;1.32;76.60;99608.44;3155016;28;20091;-68
2022/12/24 05:10:26;;;;;;;156.82;66.13;;;;;;;1.32;76.57;99596.47;3155271;28;20149;-65
2022/12/24 05:11:58;;;;;;;157.30;65.15;;;;;;;1.32;76.75;99598.19;3158950;28;20093;-66
2022/12/24 05:13:29;;;;;;;151.38;64.00;;;;;;;1.32;76.61;99603.31;3158885;28;20044;-66
2022/12/24 05:15:00;;;;;;;156.82;66.70;;;;;;;1.28;76.83;99594.81;3152508;28;20653;-65
2022/12/24 05:16:32;;;;;;;156.18;65.25;;;;;;;1.32;76.73;99603.31;3149379;28;20656;-66
2022/12/24 05:18:04;;;;;;;160.85;64.85;;;;;;;1.31;76.80;99597.34;3153431;28;20070;-65
2022/12/24 05:19:35;;;;;;;155.27;63.13;;;;;;;1.32;76.65;99593.06;3158565;28;20390;-66
2022/12/24 05:21:09;;;;;;;144.85;62.58;;;;;;;1.32;76.69;99598.19;3158884;28;20052;-66
2022/12/24 05:26:30;;;;;;;152.07;60.17;;;;;;;1.25;76.61;99594.00;3142158;28;20445;-66
2022/12/24 05:28:02;;;;;;;145.05;61.75;;;;;;;1.25;76.73;99599.13;3158909;28;20048;-65
2022/12/24 05:29:34;;;;;;;151.77;62.60;;;;;;;1.25;76.93;99591.44;3158645;28;20093;-65
2022/12/24 05:31:05;;;;;;;144.02;63.63;;;;;;;1.26;76.72;99588.00;3159140;28;20047;-66
2022/12/24 05:32:37;;;;;;;149.40;64.65;;;;;;;1.27;76.89;99592.25;3158822;28;20051;-65
2022/12/24 05:34:09;;;;;;;151.52;65.22;;;;;;;1.27;76.83;99589.69;3159218;28;20074;-66
2022/12/24 05:35:40;;;;;;;156.23;63.47;;;;;;;1.26;76.86;99599.09;3158810;28;20048;-66
2022/12/24 05:37:12;;;;;;;163.20;65.82;;;;;;;1.27;76.99;99598.25;3159211;28;20101;-66
2022/12/24 05:38:44;;;;;;;162.23;66.47;;;;;;;1.24;76.83;99599.97;3149427;28;20052;-66
2022/12/24 05:40:17;;;;;;;153.80;66.82;;;;;;;1.26;76.70;99605.94;3158961;28;20060;-65
2022/12/24 05:41:48;;;;;;;159.80;67.15;;;;;;;1.25;76.81;99604.25;3159173;28;20056;-67
2022/12/24 05:43:19;;;;;;;159.05;66.32;;;;;;;1.23;76.83;99605.97;3158824;28;20048;-66
2022/12/24 05:44:51;;;;;;;154.18;65.97;;;;;;;1.20;76.67;99604.28;3158546;28;20097;-69
2022/12/24 05:46:23;;;;;;;151.10;64.53;;;;;;;1.26;76.66;99609.34;3158938;28;20047;-71
2022/12/24 05:47:55;;;;;;;156.15;67.55;;;;;;;1.27;76.66;99610.19;3159187;28;20067;-67
2022/12/24 05:49:27;;;;;;;144.90;66.00;;;;;;;1.27;76.67;99602.50;3158778;28;20052;-68
2022/12/24 05:50:58;;;;;;;170.45;68.22;;;;;;;1.07;76.59;99577.94;3157028;28;20048;-67
2022/12/24 05:52:30;;;;;;;162.20;68.68;;;;;;;1.26;76.64;99606.78;3152254;28;20048;-68
2022/12/24 05:54:04;;;;;;;168.63;70.05;;;;;;;1.27;76.84;99600.81;3153245;28;20048;-66
2022/12/24 05:55:34;;;;;;;;;;;;;;;1.22;76.67;99612.84;3153212;28;20531;-66
2022/12/24 05:57:07;;;;;;;166.43;66.47;;;;;;;1.21;76.91;99608.53;3149144;28;19972;-69
2022/12/24 05:58:39;;;;;;;167.18;67.88;;;;;;;1.25;76.83;99617.09;3157591;28;20052;-65
2022/12/24 06:00:11;;;;;;;162.48;65.55;;;;;;;1.26;77.01;99623.91;3158698;28;20453;-67
2022/12/24 06:01:46;;;;;;;163.38;68.07;;;;;;;1.26;76.78;99618.78;3152776;28;20057;-67
2022/12/24 06:03:16;;;;;;;161.95;66.07;;;;;;;1.27;76.96;99623.91;3158577;28;20493;-66
2022/12/24 06:04:48;;;;;;;165.38;66.30;;;;;;;1.27;77.14;99620.47;3158766;28;20145;-68
2022/12/24 06:06:22;;;;;;;153.48;70.13;;;;;;;1.30;76.96;99625.56;3159312;28;20047;-68
2022/12/24 06:07:53;;;;;;;153.85;68.90;;;;;;;1.29;77.08;99621.31;3155223;28;20083;-66
2022/12/24 06:09:26;;;;;;;151.15;66.00;;;;;;;1.28;76.99;99615.31;3145850;28;20040;-67
2022/12/24 06:10:59;;;;;;;186.73;81.28;;;;;;;1.30;77.13;99620.44;3157709;28;20138;-74
2022/12/24 06:12:31;;;;;;;268.05;112.95;;;;;;;1.35;77.19;99634.06;3158765;28;20083;-67
2022/12/24 06:14:03;;;;;;;333.08;141.15;;;;;;;1.39;77.08;99634.88;3151150;28;20449;-65
2022/12/24 06:15:36;;;;;;;257.27;113.95;;;;;;;1.37;77.02;99627.22;3155386;28;20047;-65
2022/12/24 06:17:08;;;;;;;258.60;112.43;;;;;;;1.41;77.01;99639.13;3156042;28;20056;-64
2022/12/24 06:18:40;;;;;;;184.57;81.38;;;;;;;1.45;77.07;99643.38;3158241;28;20048;-67
2022/12/24 06:20:11;;;;;;;168.95;70.60;;;;;;;1.53;77.10;99636.44;3158418;28;20044;-67
2022/12/24 06:21:43;;;;;;;163.95;68.45;;;;;;;1.60;76.99;99629.53;3156874;28;20056;-67
2022/12/24 06:23:14;;;;;;;209.60;85.57;;;;;;;1.71;76.88;99635.38;3153942;28;20044;-69
2022/12/24 06:24:47;;;;;;;271.05;112.18;;;;;;;1.79;76.93;99632.72;3158405;28;20054;-68
2022/12/24 06:26:21;;;;;;;172.05;77.85;;;;;;;1.86;76.84;99625.78;3157725;28;20048;-69
2022/12/24 06:27:53;;;;;;;186.50;84.00;;;;;;;2.01;76.69;99636.72;3158410;28;20055;-68
2022/12/24 06:29:25;;;;;;;164.43;74.13;;;;;;;2.13;76.72;99645.13;3158253;28;20056;-68
2022/12/24 06:30:57;;;;;;;172.90;70.50;;;;;;;2.24;76.59;99638.97;3157983;28;20059;-68
2022/12/24 06:32:29;;;;;;;169.65;67.88;;;;;;;2.39;76.47;99642.19;3149100;28;20052;-67
2022/12/24 06:33:59;;;;;;;149.27;63.03;;;;;;;2.53;76.43;99639.44;3157869;28;20105;-68
2022/12/24 06:35:31;;;;;;;147.63;62.60;;;;;;;2.54;76.15;99605.13;3158445;28;20185;-67
2022/12/24 06:37:03;;;;;;;140.73;65.55;;;;;;;2.81;76.00;99620.13;3154928;28;20049;-72
2022/12/24 06:38:35;;;;;;;139.70;62.63;;;;;;;2.99;75.74;99636.97;3144565;28;20049;-70
2022/12/24 06:40:10;;;;;;;131.55;61.45;;;;;;;3.12;75.50;99629.91;3138976;28;20118;-73
2022/12/24 06:41:42;;;;;;;144.70;63.90;;;;;;;3.27;75.14;99637.34;3141203;28;20052;-72
2022/12/24 06:43:13;;;;;;;156.60;64.70;;;;;;;3.45;75.04;99648.19;3140666;28;20053;-70
2022/12/24 06:44:45;;;;;;;148.10;61.25;;;;;;;3.57;74.63;99647.94;3144100;28;20052;-71
2022/12/24 06:46:18;;;;;;;140.02;58.92;;;;;;;3.69;74.40;99642.56;3139281;28;20071;-74
2022/12/24 06:47:49;;;;;;;135.63;58.45;;;;;;;3.87;74.16;99647.34;3135191;28;20072;-68
2022/12/24 06:49:21;;;;;;;138.63;61.05;;;;;;;4.04;73.67;99643.56;3137705;28;20441;-69
2022/12/24 06:50:52;;;;;;;125.65;56.28;;;;;;;4.15;73.45;99641.63;3142139;28;20114;-70
2022/12/24 06:52:24;;;;;;;154.80;60.92;;;;;;;4.23;73.05;99632.00;3137886;28;20045;-68
2022/12/24 06:53:56;;;;;;;130.02;60.08;;;;;;;4.34;72.70;99627.41;3134210;28;20415;-68
2022/12/24 06:55:28;;;;;;;141.57;61.47;;;;;;;4.54;72.40;99637.28;3137042;28;20053;-70
2022/12/24 06:57:00;;;;;;;135.57;58.63;;;;;;;4.65;72.10;99631.06;3135117;28;20091;-72
2022/12/24 06:58:32;;;;;;;143.40;59.75;;;;;;;4.87;71.68;99637.38;3140456;28;20052;-72
2022/12/24 07:00:05;;;;;;;139.27;60.25;;;;;;;5.06;71.29;99637.78;3140713;28;20044;-73
2022/12/24 07:01:37;;;;;;;;;;;;;;;5.23;71.20;99625.28;3139924;28;20275;-74
2022/12/24 07:03:08;;;;;;;129.20;53.97;;;;;;;5.41;70.96;99636.00;3139087;28;19920;-68
2022/12/24 07:04:40;;;;;;;114.63;49.50;;;;;;;5.61;70.65;99625.13;3138257;28;20482;-69
2022/12/24 07:06:21;;;;;;;105.53;44.25;;;;;;;5.29;70.45;99533.88;3138121;28;20073;-69
2022/12/24 07:07:53;;;;;;;107.20;50.38;;;;;;;6.06;69.98;99628.19;3136701;28;20060;-69
2022/12/24 07:09:25;;;;;;;120.88;52.40;;;;;;;6.27;69.68;99626.69;3140027;28;20102;-68
2022/12/24 07:10:59;;;;;;;110.40;50.95;;;;;;;6.50;69.08;99619.94;3137733;28;20062;-69
2022/12/24 07:12:31;;;;;;;105.85;51.58;;;;;;;6.61;68.75;99599.78;3137357;28;20056;-69
2022/12/24 07:14:03;;;;;;;121.78;55.95;;;;;;;6.99;68.03;99624.41;3137612;28;20068;-68
2022/12/24 07:15:35;;;;;;;122.78;52.50;;;;;;;7.25;67.47;99625.28;3156055;28;20136;-69
2022/12/24 07:17:06;;;;;;;118.88;52.65;;;;;;;7.49;66.69;99628.75;3138333;28;20052;-68
2022/12/24 07:18:37;;;;;;;117.00;51.30;;;;;;;7.74;65.87;99624.38;3136958;28;20048;-73
2022/12/24 07:20:13;;;;;;;105.75;50.47;;;;;;;8.01;64.79;99638.97;3141044;28;20045;-77